Time;durP1;ratioP1;P1;durP2;ratioP2;P2;SDS_P1;SDS_P2;PMS_P1;PMS_P2;Temp;Humidity;BMP_temperature;BMP_pressure;BME280_temperature;BME280_humidity;BME280_pressure;Samples;Min_cycle;Max_cycle;Signal;HPM_P1;HPM_P2
2021/07/08 00:01:00;;;;;;;;;;;;;;;15.97;92.76;101641.00;4970207;28;19914;-74
2021/07/08 00:03:25;;;;;;;;;;;;;;;15.98;91.93;101645.38;4970984;28;19914;-74
2021/07/08 00:05:50;;;;;;;;;;;;;;;15.96;91.14;101643.88;4970708;28;19941;-74
2021/07/08 00:08:16;;;;;;;;;;;;;;;15.98;90.71;101645.38;4970795;28;19914;-74
2021/07/08 00:10:45;;;;;;;;;;;;;;;16.01;90.35;101645.03;4970089;28;20347;-74
2021/07/08 00:13:10;;;;;;;;;;;;;;;16.15;89.33;101635.34;4970784;28;19914;-74
2021/07/08 00:15:36;;;;;;;;;;;;;;;16.15;89.27;101639.88;4969892;28;19914;-75
2021/07/08 00:18:04;;;;;;;;;;;;;;;16.30;87.61;101642.69;4953571;28;19921;-75
2021/07/08 00:20:29;;;;;;;;;;;;;;;16.32;88.03;101640.63;4969794;28;19917;-75
2021/07/08 00:22:55;;;;;;;;;;;;;;;16.32;88.04;101641.47;4953691;28;19914;-75
2021/07/08 00:25:24;;;;;;;;;;;;;;;16.34;89.09;101647.53;4953746;28;19918;-75
2021/07/08 00:27:50;;;;;;;;;;;;;;;16.29;89.58;101652.59;4970189;28;19914;-74
2021/07/08 00:30:16;;;;;;;;;;;;;;;16.29;90.01;101651.75;4970411;28;19968;-75
2021/07/08 00:32:42;;;;;;;;;;;;;;;16.21;90.86;101649.97;4968820;28;19914;-74
2021/07/08 00:35:07;;;;;;;;;;;;;;;16.12;91.09;101651.03;4969576;28;20016;-75
2021/07/08 00:37:33;;;;;;;;;;;;;;;16.05;91.75;101661.66;4970125;28;20004;-74
2021/07/08 00:39:58;;;;;;;;;;;;;;;15.97;91.55;101657.16;4953567;28;19918;-74
2021/07/08 00:42:23;;;;;;;;;;;;;;;15.93;92.06;101653.16;4969304;28;20343;-74
2021/07/08 00:44:49;;;;;;;;;;;;;;;15.92;92.48;101651.47;4969329;28;19914;-74
2021/07/08 00:47:14;;;;;;;;;;;;;;;15.79;92.87;101654.72;4969254;28;19913;-75
2021/07/08 00:49:39;;;;;;;;;;;;;;;15.74;93.46;101650.88;4970336;28;20497;-75
2021/07/08 00:52:04;;;;;;;;;;;;;;;15.79;93.11;101656.56;4969413;28;19913;-74
2021/07/08 00:54:30;;;;;;;;;;;;;;;15.85;92.85;101655.88;4970351;28;19914;-74
2021/07/08 00:56:55;;;;;;;;;;;;;;;15.93;92.51;101655.00;4968910;28;19975;-74
2021/07/08 00:59:20;;;;;;;;;;;;;;;15.89;92.96;101651.81;4970296;28;20067;-74
2021/07/08 01:01:46;;;;;;;;;;;;;;;15.83;93.13;101657.91;4969330;28;19996;-74
2021/07/08 01:04:12;;;;;;;;;;;;;;;15.72;92.90;101655.59;4970249;28;20000;-74
2021/07/08 01:06:44;;;;;;;;;;;;;;;15.64;93.26;101648.38;4968848;28;19975;-74
2021/07/08 01:09:09;;;;;;;;;;;;;;;15.61;93.38;101651.38;4969291;28;19941;-74
2021/07/08 01:11:34;;;;;;;;;;;;;;;15.63;93.88;101657.44;4969935;28;20355;-74
2021/07/08 01:13:59;;;;;;;;;;;;;;;15.73;93.65;101659.94;4969108;28;19964;-74
2021/07/08 01:16:27;;;;;;;;;;;;;;;15.75;93.72;101645.31;4968928;28;20025;-74
2021/07/08 01:18:52;;;;;;;;;;;;;;;15.78;93.93;101649.50;4970002;28;19914;-74
2021/07/08 01:21:31;;;;;;;;;;;;;;;15.78;94.06;101654.88;4969077;28;19918;-74
2021/07/08 01:23:57;;;;;;;;;;;;;;;15.74;94.04;101649.03;4970001;28;20271;-74
2021/07/08 01:26:23;;;;;;;;;;;;;;;15.67;93.21;101647.19;4969592;28;19926;-74
2021/07/08 01:28:52;;;;;;;;;;;;;;;15.60;93.33;101639.78;4969911;28;19968;-74
2021/07/08 01:31:18;;;;;;;;;;;;;;;15.57;93.91;101640.16;4969861;28;20351;-74
2021/07/08 01:33:44;;;;;;;;;;;;;;;15.56;94.10;101635.75;4969804;28;19961;-74
2021/07/08 01:36:09;;;;;;;;;;;;;;;15.50;93.73;101631.09;4968535;28;20008;-74
2021/07/08 01:38:35;;;;;;;;;;;;;;;15.53;93.76;101641.50;4969716;28;20063;-74
2021/07/08 01:41:00;;;;;;;;;;;;;;;15.52;94.02;101649.72;4952726;28;20362;-75
2021/07/08 01:43:25;;;;;;;;;;;;;;;15.53;93.84;101646.03;4971826;28;19966;-74
2021/07/08 01:45:50;;;;;;;;;;;;;;;15.48;93.76;101637.66;4972823;28;19918;-74
2021/07/08 01:48:16;;;;;;;;;;;;;;;15.44;94.04;101650.59;4972884;28;20243;-74
2021/07/08 01:50:41;;;;;;;;;;;;;;;15.41;93.75;101641.03;4973064;28;19971;-75
2021/07/08 01:53:06;;;;;;;;;;;;;;;15.39;93.96;101650.28;4972800;28;19922;-74
2021/07/08 01:55:32;;;;;;;;;;;;;;;15.41;94.56;101649.09;4973041;28;19914;-74
2021/07/08 01:57:57;;;;;;;;;;;;;;;15.41;94.40;101646.41;4955743;28;19910;-74
2021/07/08 02:00:24;;;;;;;;;;;;;;;15.44;94.42;101650.59;4972056;28;19960;-74
2021/07/08 02:02:50;;;;;;;;;;;;;;;15.45;94.25;101649.56;4972824;28;19914;-75
2021/07/08 02:05:16;;;;;;;;;;;;;;;15.43;94.26;101643.56;4955713;28;19983;-74
2021/07/08 02:07:42;;;;;;;;;;;;;;;15.39;93.99;101652.97;4971508;28;19965;-74
2021/07/08 02:10:12;;;;;;;;;;;;;;;15.36;94.67;101656.84;4971826;28;20363;-74
2021/07/08 02:12:40;;;;;;;;;;;;;;;15.44;94.96;101652.47;4971793;28;19926;-74
2021/07/08 02:15:06;;;;;;;;;;;;;;;15.45;94.88;101656.81;4971767;28;19914;-74
2021/07/08 02:17:32;;;;;;;;;;;;;;;15.44;95.00;101655.16;4972219;28;19976;-74
2021/07/08 02:19:58;;;;;;;;;;;;;;;15.45;94.32;101654.97;4971630;28;19917;-74
2021/07/08 02:22:23;;;;;;;;;;;;;;;15.47;94.23;101657.50;4971422;28;19917;-74
2021/07/08 02:24:48;;;;;;;;;;;;;;;15.44;94.07;101649.78;4971652;28;19979;-74
2021/07/08 02:27:13;;;;;;;;;;;;;;;15.46;94.46;101648.59;4972168;28;19929;-74
2021/07/08 02:29:39;;;;;;;;;;;;;;;15.49;94.44;101645.53;4971532;28;19971;-74
2021/07/08 02:32:04;;;;;;;;;;;;;;;15.45;94.28;101648.75;4971563;28;19957;-74
2021/07/08 02:34:30;;;;;;;;;;;;;;;15.40;94.72;101641.19;4972342;28;19957;-74
2021/07/08 02:36:55;;;;;;;;;;;;;;;15.45;95.00;101638.81;4971927;28;19917;-74
2021/07/08 02:39:20;;;;;;;;;;;;;;;15.48;95.12;101649.25;4955252;28;19925;-74
2021/07/08 02:41:45;;;;;;;;;;;;;;;15.45;94.92;101646.88;4971215;28;19971;-74
2021/07/08 02:44:11;;;;;;;;;;;;;;;15.45;94.70;101649.56;4971288;28;19922;-74
2021/07/08 02:46:36;;;;;;;;;;;;;;;15.44;94.67;101652.47;4954766;28;20358;-74
2021/07/08 02:49:01;;;;;;;;;;;;;;;15.41;94.47;101650.97;4955101;28;19914;-74
2021/07/08 02:51:26;;;;;;;;;;;;;;;15.40;94.91;101660.03;4954960;28;19918;-74
2021/07/08 02:53:52;;;;;;;;;;;;;;;15.36;94.36;101651.47;4971354;28;20055;-74
2021/07/08 02:56:17;;;;;;;;;;;;;;;15.40;94.64;101657.34;4970861;28;20477;-74
2021/07/08 02:58:42;;;;;;;;;;;;;;;15.35;94.64;101655.16;4971957;28;19952;-74
2021/07/08 03:01:07;;;;;;;;;;;;;;;15.35;94.79;101657.00;4971981;28;19914;-74
2021/07/08 03:03:33;;;;;;;;;;;;;;;15.35;94.46;101657.00;4971000;28;19925;-74
2021/07/08 03:05:58;;;;;;;;;;;;;;;15.36;94.86;101646.09;4954621;28;19933;-74
2021/07/08 03:08:23;;;;;;;;;;;;;;;15.38;95.05;101648.59;4971699;28;20422;-74
2021/07/08 03:10:48;;;;;;;;;;;;;;;15.38;95.13;101649.44;4954912;28;20267;-74
2021/07/08 03:13:14;;;;;;;;;;;;;;;15.40;94.95;101641.19;4954884;28;20008;-74
2021/07/08 03:15:39;;;;;;;;;;;;;;;15.41;94.97;101645.56;4970785;28;19914;-74
2021/07/08 03:18:04;;;;;;;;;;;;;;;15.45;95.34;101649.56;4971549;28;19932;-74
2021/07/08 03:20:31;;;;;;;;;;;;;;;15.49;94.98;101647.41;4954613;28;19914;-74
2021/07/08 03:22:57;;;;;;;;;;;;;;;15.52;95.20;101655.97;4971539;28;20000;-75
2021/07/08 03:25:23;;;;;;;;;;;;;;;15.56;95.04;101651.06;4971569;28;19929;-74
2021/07/08 03:27:49;;;;;;;;;;;;;;;15.58;94.89;101655.28;4971315;28;19918;-74
2021/07/08 03:30:16;;;;;;;;;;;;;;;15.62;95.30;101653.91;4970562;28;20394;-74
2021/07/08 03:32:41;;;;;;;;;;;;;;;15.67;95.07;101647.19;4970526;28;19917;-74
2021/07/08 03:35:07;;;;;;;;;;;;;;;15.67;94.78;101641.78;4971380;28;19917;-74
2021/07/08 03:37:33;;;;;;;;;;;;;;;15.71;94.95;101649.38;4970002;28;19917;-74
2021/07/08 03:39:58;;;;;;;;;;;;;;;15.75;95.26;101652.53;4954318;28;20286;-74
2021/07/08 03:42:23;;;;;;;;;;;;;;;15.79;95.04;101656.56;4971334;28;19980;-74
2021/07/08 03:44:49;;;;;;;;;;;;;;;15.83;95.01;101652.53;4971138;28;19914;-74
2021/07/08 03:47:14;;;;;;;;;;;;;;;15.90;95.19;101661.59;4954087;28;19929;-74
2021/07/08 03:49:39;;;;;;;;;;;;;;;15.94;95.14;101657.50;4970344;28;20000;-74
2021/07/08 03:52:05;;;;;;;;;;;;;;;15.95;95.07;101661.06;4970213;28;19949;-74
2021/07/08 03:54:30;;;;;;;;;;;;;;;16.02;94.97;101654.78;4970278;28;20350;-74
2021/07/08 03:56:55;;;;;;;;;;;;;;;16.10;95.23;101658.44;4970838;28;19914;-74
2021/07/08 03:59:21;;;;;;;;;;;;;;;16.14;95.03;101654.41;4970948;28;19914;-74
2021/07/08 04:01:46;;;;;;;;;;;;;;;16.19;94.79;101650.13;4970979;28;20255;-74
2021/07/08 04:04:11;;;;;;;;;;;;;;;16.24;94.45;101655.00;4953984;28;20012;-74
2021/07/08 04:06:36;;;;;;;;;;;;;;;16.35;94.49;101659.97;4969414;28;20075;-74
2021/07/08 04:09:02;;;;;;;;;;;;;;;16.38;93.27;101667.69;4970945;28;20014;-74
2021/07/08 04:11:27;;;;;;;;;;;;;;;16.54;93.53;101671.31;4970862;28;19917;-74
2021/07/08 04:13:53;;;;;;;;;;;;;;;16.67;93.03;101677.78;4969865;28;19914;-74
2021/07/08 04:16:18;;;;;;;;;;;;;;;16.76;92.80;101681.25;4953483;28;19949;-74
2021/07/08 04:18:43;;;;;;;;;;;;;;;16.74;92.38;101672.53;4969847;28;19922;-74
2021/07/08 04:21:09;;;;;;;;;;;;;;;16.75;91.73;101682.28;4969685;28;19914;-74
2021/07/08 04:23:34;;;;;;;;;;;;;;;16.65;90.25;101685.22;4970741;28;19914;-75
2021/07/08 04:25:59;;;;;;;;;;;;;;;16.71;90.35;101685.50;4969372;28;20008;-72
2021/07/08 04:28:24;;;;;;;;;;;;;;;16.70;89.71;101691.94;4970512;28;19964;-71
2021/07/08 04:30:50;;;;;;;;;;;;;;;16.61;88.59;101688.44;4953457;28;19937;-72
2021/07/08 04:33:15;;;;;;;;;;;;;;;16.58;88.51;101680.72;4970523;28;19980;-72
2021/07/08 04:35:41;;;;;;;;;;;;;;;16.60;88.34;101689.44;4970353;28;19914;-72
2021/07/08 04:38:07;;;;;;;;;;;;;;;16.75;89.91;101684.97;4953120;28;19961;-71
2021/07/08 04:40:33;;;;;;;;;;;;;;;16.90;90.59;101697.69;4969511;28;19958;-72
2021/07/08 04:42:59;;;;;;;;;;;;;;;16.97;91.21;101687.84;4953268;28;19918;-72
2021/07/08 04:45:25;;;;;;;;;;;;;;;16.90;89.71;101686.91;4970187;28;20263;-72
2021/07/08 04:47:51;;;;;;;;;;;;;;;17.06;90.26;101692.16;4969182;28;19925;-72
2021/07/08 04:50:17;;;;;;;;;;;;;;;16.94;88.20;101699.00;4970192;28;19924;-72
2021/07/08 04:52:43;;;;;;;;;;;;;;;16.95;88.60;101697.97;4970263;28;19924;-72
2021/07/08 04:55:09;;;;;;;;;;;;;;;16.91;88.52;101700.22;4953255;28;20463;-72
2021/07/08 04:57:35;;;;;;;;;;;;;;;17.02;87.72;101705.19;4952902;28;19935;-71
2021/07/08 05:00:00;;;;;;;;;;;;;;;17.18;87.58;101700.66;4970221;28;19914;-72
2021/07/08 05:02:26;;;;;;;;;;;;;;;17.33;87.36;101706.09;4970180;28;19921;-72
2021/07/08 05:04:51;;;;;;;;;;;;;;;17.21;87.11;101711.94;4969043;28;19949;-72
2021/07/08 05:07:16;;;;;;;;;;;;;;;17.22;86.69;101700.09;4968826;28;19914;-72
2021/07/08 05:09:42;;;;;;;;;;;;;;;17.23;87.01;101712.59;4970051;28;20307;-72
2021/07/08 05:12:07;;;;;;;;;;;;;;;17.12;86.22;101710.31;4970077;28;20067;-72
2021/07/08 05:14:34;;;;;;;;;;;;;;;17.32;85.80;101712.50;4953117;28;20370;-71
2021/07/08 05:16:59;;;;;;;;;;;;;;;17.37;85.15;101720.88;4969842;28;19918;-72
2021/07/08 05:19:25;;;;;;;;;;;;;;;17.38;85.22;101722.56;4972371;28;20254;-72
2021/07/08 05:21:50;;;;;;;;;;;;;;;17.13;85.71;101717.38;4973412;28;19929;-72
2021/07/08 05:24:22;;;;;;;;;;;;;;;17.04;87.00;101715.78;4972477;28;20424;-72
2021/07/08 05:26:47;;;;;;;;;;;;;;;17.20;87.08;101712.94;4972991;28;19933;-72
2021/07/08 05:29:12;;;;;;;;;;;;;;;17.11;86.34;101727.53;4972294;28;20541;-72
2021/07/08 05:31:38;;;;;;;;;;;;;;;16.96;88.05;101734.75;4972304;28;19918;-72
2021/07/08 05:34:03;;;;;;;;;;;;;;;16.98;88.86;101721.91;4972937;28;19918;-72
2021/07/08 05:36:28;;;;;;;;;;;;;;;17.14;88.70;101720.91;4971851;28;19968;-72
2021/07/08 05:38:54;;;;;;;;;;;;;;;17.16;87.29;101725.13;4956082;28;19999;-72
2021/07/08 05:41:19;;;;;;;;;;;;;;;17.26;86.90;101727.59;4972982;28;19914;-72
2021/07/08 05:43:44;;;;;;;;;;;;;;;17.24;87.12;101727.75;4972910;28;20400;-71
2021/07/08 05:46:09;;;;;;;;;;;;;;;17.18;87.79;101736.56;4971771;28;20442;-72
2021/07/08 05:48:35;;;;;;;;;;;;;;;17.26;87.80;101738.38;4955835;28;19925;-71
2021/07/08 05:51:00;;;;;;;;;;;;;;;17.25;87.12;101734.81;4972048;28;20312;-72
2021/07/08 05:53:25;;;;;;;;;;;;;;;17.45;86.86;101735.16;4971948;28;19957;-72
2021/07/08 05:55:50;;;;;;;;;;;;;;;17.51;88.07;101734.41;4955769;28;19914;-72
2021/07/08 05:58:16;;;;;;;;;;;;;;;17.79;85.77;101730.22;4971787;28;19914;-72
2021/07/08 06:00:41;;;;;;;;;;;;;;;17.98;84.21;101726.16;4972900;28;19913;-72
2021/07/08 06:03:06;;;;;;;;;;;;;;;18.07;83.38;101728.56;4971814;28;19937;-72
2021/07/08 06:05:32;;;;;;;;;;;;;;;18.29;84.59;101726.78;4972637;28;19984;-72
2021/07/08 06:07:57;;;;;;;;;;;;;;;18.53;84.43;101732.88;4972487;28;20032;-72
2021/07/08 06:10:22;;;;;;;;;;;;;;;18.48;80.63;101736.13;4971716;28;19928;-72
2021/07/08 06:12:47;;;;;;;;;;;;;;;18.28;81.21;101724.25;4972610;28;20311;-72
2021/07/08 06:15:13;;;;;;;;;;;;;;;18.42;80.81;101726.06;4971729;28;19918;-72
2021/07/08 06:17:38;;;;;;;;;;;;;;;18.11;81.64;101729.88;4972317;28;19917;-72
2021/07/08 06:20:04;;;;;;;;;;;;;;;18.14;83.10;101734.91;4955703;28;19914;-72
2021/07/08 06:22:29;;;;;;;;;;;;;;;18.52;81.26;101740.16;4972441;28;20575;-72
2021/07/08 06:24:55;;;;;;;;;;;;;;;18.48;81.02;101749.66;4971447;28;19996;-72
2021/07/08 06:27:20;;;;;;;;;;;;;;;18.27;81.17;101746.91;4972131;28;19921;-72
2021/07/08 06:29:45;;;;;;;;;;;;;;;18.31;82.24;101753.63;4970230;28;19914;-72
2021/07/08 06:32:11;;;;;;;;;;;;;;;18.58;80.79;101762.88;4971426;28;19921;-72
2021/07/08 06:34:36;;;;;;;;;;;;;;;18.97;79.19;101762.50;4955173;28;20293;-72
2021/07/08 06:37:02;;;;;;;;;;;;;;;19.22;78.43;101759.38;4971998;28;19914;-72
2021/07/08 06:39:27;;;;;;;;;;;;;;;19.27;78.21;101756.94;4971280;28;19922;-72
2021/07/08 06:41:52;;;;;;;;;;;;;;;19.05;78.19;101752.56;4972081;28;19928;-73
2021/07/08 06:44:18;;;;;;;;;;;;;;;19.24;78.61;101751.06;4955188;28;19917;-72
2021/07/08 06:46:49;;;;;;;;;;;;;;;19.74;76.91;101752.72;4954762;28;19922;-72
2021/07/08 06:49:15;;;;;;;;;;;;;;;19.47;77.67;101740.81;4971179;28;19922;-74
2021/07/08 06:51:40;;;;;;;;;;;;;;;19.75;78.51;101743.53;4972015;28;19968;-72
2021/07/08 06:54:06;;;;;;;;;;;;;;;20.41;73.85;101744.91;4971145;28;19914;-72
2021/07/08 06:56:31;;;;;;;;;;;;;;;20.16;73.78;101761.72;4971646;28;20251;-73
2021/07/08 06:58:57;;;;;;;;;;;;;;;20.28;74.59;101759.25;4971005;28;20026;-72
2021/07/08 07:01:22;;;;;;;;;;;;;;;20.19;74.27;101755.88;4970941;28;19970;-72
2021/07/08 07:03:47;;;;;;;;;;;;;;;20.83;73.14;101756.53;4971014;28;20017;-72
2021/07/08 07:06:12;;;;;;;;;;;;;;;21.00;71.80;101765.97;4970536;28;20012;-73
2021/07/08 07:08:38;;;;;;;;;;;;;;;20.97;72.65;101774.50;4971869;28;19960;-73
2021/07/08 07:11:03;;;;;;;;;;;;;;;21.95;69.81;101781.19;4970867;28;20377;-73
2021/07/08 07:13:28;;;;;;;;;;;;;;;22.08;65.79;101773.00;4954776;28;20022;-73
2021/07/08 07:15:53;;;;;;;;;;;;;;;21.14;70.19;101774.97;4954439;28;20339;-73
2021/07/08 07:18:19;;;;;;;;;;;;;;;22.21;69.40;101772.97;4970649;28;19914;-73
2021/07/08 07:20:44;;;;;;;;;;;;;;;22.18;67.17;101776.09;4970665;28;19976;-72
2021/07/08 07:23:09;;;;;;;;;;;;;;;22.65;65.98;101778.63;4971730;28;20236;-75
2021/07/08 07:25:40;;;;;;;;;;;;;;;21.90;66.35;101773.66;4954471;28;20321;-75
2021/07/08 07:28:05;;;;;;;;;;;;;;;21.37;70.28;101776.41;4954294;28;19921;-75
2021/07/08 07:30:30;;;;;;;;;;;;;;;21.54;68.77;101765.97;4970553;28;20255;-76
2021/07/08 07:32:56;;;;;;;;;;;;;;;21.68;68.12;101764.91;4970385;28;20313;-75
2021/07/08 07:35:21;;;;;;;;;;;;;;;21.54;68.11;101761.41;4970513;28;19918;-75
2021/07/08 07:37:47;;;;;;;;;;;;;;;22.10;67.02;101758.13;4954067;28;20071;-75
2021/07/08 07:40:12;;;;;;;;;;;;;;;22.64;65.11;101766.06;4970170;28;19945;-75
2021/07/08 07:42:38;;;;;;;;;;;;;;;22.95;64.90;101762.53;4970360;28;20005;-75
2021/07/08 07:45:04;;;;;;;;;;;;;;;23.50;63.62;101757.28;4970313;28;20553;-75
2021/07/08 07:47:29;;;;;;;;;;;;;;;23.88;63.35;101759.03;4969806;28;20376;-75
2021/07/08 07:49:55;;;;;;;;;;;;;;;24.22;60.53;101762.19;4971233;28;20013;-76
2021/07/08 07:52:20;;;;;;;;;;;;;;;23.03;62.18;101754.09;4971078;28;19925;-75
2021/07/08 07:54:46;;;;;;;;;;;;;;;22.54;65.05;101763.81;4954275;28;19995;-75
2021/07/08 07:57:11;;;;;;;;;;;;;;;23.05;64.97;101764.78;4953745;28;20393;-75
2021/07/08 07:59:37;;;;;;;;;;;;;;;23.45;63.80;101764.47;4970158;28;19925;-75
2021/07/08 08:02:02;;;;;;;;;;;;;;;22.70;65.63;101774.19;4953897;28;19970;-74
2021/07/08 08:04:30;;;;;;;;;;;;;;;23.20;64.38;101776.19;4971058;28;20379;-75
2021/07/08 08:09:39;;;;;;;;;;;;;;;23.21;62.68;101771.59;4970991;28;19914;-75
2021/07/08 08:12:05;;;;;;;;;;;;;;;22.44;63.80;101769.72;4970850;28;19918;-75
2021/07/08 08:14:30;;;;;;;;;;;;;;;22.22;66.71;101774.66;4970790;28;20239;-75
2021/07/08 08:16:55;;;;;;;;;;;;;;;22.36;66.06;101780.88;4970623;28;19953;-75
2021/07/08 08:19:20;;;;;;;;;;;;;;;22.84;65.61;101774.94;4970002;28;19925;-75
2021/07/08 08:21:46;;;;;;;;;;;;;;;23.73;61.96;101777.59;4969825;28;19933;-75
2021/07/08 08:24:11;;;;;;;;;;;;;;;23.33;62.40;101767.91;4969912;28;20340;-75
2021/07/08 08:26:36;;;;;;;;;;;;;;;23.51;63.43;101769.03;4969510;28;20012;-75
2021/07/08 08:29:02;;;;;;;;;;;;;;;23.62;61.77;101767.44;4969613;28;19925;-76
2021/07/08 08:31:27;;;;;;;;;;;;;;;23.63;63.93;101767.22;4969694;28;19925;-75
2021/07/08 08:33:52;;;;;;;;;;;;;;;23.61;63.20;101763.88;4970624;28;19918;-75
2021/07/08 08:36:17;;;;;;;;;;;;;;;22.87;63.36;101769.06;4969269;28;20414;-75
2021/07/08 08:38:43;;;;;;;;;;;;;;;22.91;64.42;101769.47;4969628;28;19918;-74
2021/07/08 08:41:08;;;;;;;;;;;;;;;22.39;64.64;101766.81;4969135;28;19920;-76
2021/07/08 08:43:33;;;;;;;;;;;;;;;22.06;66.22;101756.88;4969147;28;20013;-76
2021/07/08 08:46:01;;;;;;;;;;;;;;;22.68;64.32;101767.31;4970016;28;19921;-76
2021/07/08 08:48:26;;;;;;;;;;;;;;;22.30;65.78;101766.22;4969496;28;19913;-75
2021/07/08 08:50:52;;;;;;;;;;;;;;;22.51;64.88;101764.25;4970338;28;20025;-76
2021/07/08 08:53:18;;;;;;;;;;;;;;;23.37;64.31;101771.03;4952322;28;19948;-76
2021/07/08 08:55:44;;;;;;;;;;;;;;;23.09;63.07;101777.75;4969909;28;19918;-76
2021/07/08 08:58:10;;;;;;;;;;;;;;;23.36;63.04;101774.81;4967755;28;20339;-76
2021/07/08 09:00:40;;;;;;;;;;;;;;;22.85;64.62;101776.63;4969959;28;20215;-76
2021/07/08 09:03:13;;;;;;;;;;;;;;;22.93;62.96;101789.13;4968781;28;19984;-76
2021/07/08 09:05:39;;;;;;;;;;;;;;;24.19;59.54;101795.41;4969732;28;19922;-77
2021/07/08 09:08:08;;;;;;;;;;;;;;;24.77;58.24;101783.97;4952440;28;19968;-76
2021/07/08 09:10:33;;;;;;;;;;;;;;;24.11;59.18;101784.78;4969320;28;19914;-76
2021/07/08 09:12:59;;;;;;;;;;;;;;;23.02;61.85;101778.84;4969054;28;19929;-75
2021/07/08 09:15:25;;;;;;;;;;;;;;;23.35;60.84;101792.22;4953041;28;19925;-75
2021/07/08 09:17:50;;;;;;;;;;;;;;;23.09;60.53;101785.91;4968845;28;19914;-75
2021/07/08 09:20:16;;;;;;;;;;;;;;;23.71;61.43;101786.00;4970076;28;19914;-76
2021/07/08 09:22:45;;;;;;;;;;;;;;;24.53;58.77;101783.00;4968918;28;19924;-76
2021/07/08 09:25:19;;;;;;;;;;;;;;;24.72;58.28;101783.81;4969816;28;19914;-76
2021/07/08 09:27:44;;;;;;;;;;;;;;;24.81;56.58;101778.84;4969636;28;19922;-77
2021/07/08 09:30:22;;;;;;;;;;;;;;;24.58;58.16;101790.50;4968894;28;20018;-76
2021/07/08 09:32:47;;;;;;;;;;;;;;;24.29;57.95;101792.97;4968958;28;19967;-76
2021/07/08 09:35:12;;;;;;;;;;;;;;;24.38;58.65;101790.75;4968854;28;20263;-76
2021/07/08 09:37:38;;;;;;;;;;;;;;;24.29;57.51;101797.59;4968408;28;19965;-77
2021/07/08 09:40:05;;;;;;;;;;;;;;;24.30;57.74;101800.06;4969525;28;19918;-76
2021/07/08 09:42:46;;;;;;;;;;;;;;;24.59;56.92;101793.03;4968795;28;20005;-77
2021/07/08 09:45:13;;;;;;;;;;;;;;;24.77;55.69;101789.44;4967036;28;20418;-76
2021/07/08 09:47:39;;;;;;;;;;;;;;;23.66;58.79;101801.38;4950730;28;19922;-76
2021/07/08 09:50:05;;;;;;;;;;;;;;;23.34;61.85;101790.53;4968358;28;19914;-76
2021/07/08 09:52:31;;;;;;;;;;;;;;;23.86;60.99;101796.59;4967064;28;19914;-76
2021/07/08 09:57:40;;;;;;;;;;;;;;;25.12;60.46;101785.09;4968325;28;19913;-76
2021/07/08 10:00:29;;;;;;;;;;;;;;;25.19;58.89;101786.72;4952512;28;20009;-77
2021/07/08 10:02:55;;;;;;;;;;;;;;;25.12;57.43;101788.66;4981778;28;19913;-77
2021/07/08 10:05:21;;;;;;;;;;;;;;;24.62;59.57;101786.25;4955707;28;19914;-76
2021/07/08 10:07:47;;;;;;;;;;;;;;;25.05;57.25;101788.78;4971465;28;19999;-76
2021/07/08 10:10:13;;;;;;;;;;;;;;;25.24;57.67;101788.75;4971813;28;20012;-76
2021/07/08 10:12:39;;;;;;;;;;;;;;;25.04;56.90;101794.47;4972719;28;20026;-76
2021/07/08 10:15:06;;;;;;;;;;;;;;;24.67;59.40;101804.69;4972593;28;19914;-76
2021/07/08 10:17:32;;;;;;;;;;;;;;;24.78;59.02;101809.38;4972157;28;19936;-76
2021/07/08 10:19:57;;;;;;;;;;;;;;;24.76;58.21;101812.31;4971675;28;19913;-76
2021/07/08 10:22:23;;;;;;;;;;;;;;;24.65;58.80;101802.19;4955498;28;19992;-76
2021/07/08 10:24:49;;;;;;;;;;;;;;;24.13;61.50;101807.22;4972536;28;19964;-76
2021/07/08 10:27:14;;;;;;;;;;;;;;;24.28;61.67;101809.56;4971211;28;19922;-77
2021/07/08 10:29:40;;;;;;;;;;;;;;;24.23;61.72;101800.19;4972516;28;19963;-77
2021/07/08 10:32:06;;;;;;;;;;;;;;;24.54;62.77;101808.44;4971351;28;20351;-76
2021/07/08 10:34:42;;;;;;;;;;;;;;;24.06;61.79;101810.00;4971531;28;19921;-76
2021/07/08 10:37:07;;;;;;;;;;;;;;;24.35;62.26;101797.50;4971087;28;19933;-77
2021/07/08 10:39:38;;;;;;;;;;;;;;;24.36;62.00;101798.34;4971445;28;20363;-76
2021/07/08 10:42:03;;;;;;;;;;;;;;;24.22;59.76;101798.50;4955251;28;19925;-76
2021/07/08 10:44:42;;;;;;;;;;;;;;;23.79;63.10;101793.13;4972104;28;19914;-76
2021/07/08 10:47:28;;;;;;;;;;;;;;;24.04;60.10;101798.50;4970933;28;19926;-76
2021/07/08 10:49:53;;;;;;;;;;;;;;;23.47;61.52;101790.44;4972036;28;19946;-77
2021/07/08 10:52:38;;;;;;;;;;;;;;;23.52;60.57;101785.13;4972120;28;19957;-76
2021/07/08 10:55:03;;;;;;;;;;;;;;;24.31;59.23;101782.66;4971854;28;19918;-76
2021/07/08 10:57:39;;;;;;;;;;;;;;;24.62;57.56;101787.09;4971739;28;20014;-76
2021/07/08 11:00:09;;;;;;;;;;;;;;;24.96;57.02;101790.19;4955004;28;20307;-76
2021/07/08 11:02:46;;;;;;;;;;;;;;;25.21;56.61;101787.28;4955011;28;20347;-77
2021/07/08 11:05:11;;;;;;;;;;;;;;;25.35;56.54;101785.19;4970913;28;20008;-76
2021/07/08 11:07:46;;;;;;;;;;;;;;;25.79;55.68;101779.38;4970669;28;20420;-76
2021/07/08 11:10:12;;;;;;;;;;;;;;;26.04;54.78;101782.69;4970940;28;20279;-74
2021/07/08 11:12:39;;;;;;;;;;;;;;;24.66;58.59;101790.22;4971955;28;19949;-74
2021/07/08 11:15:05;;;;;;;;;;;;;;;25.33;57.25;101786.47;4971221;28;19914;-74
2021/07/08 11:17:37;;;;;;;;;;;;;;;24.81;55.92;101779.69;4971441;28;20377;-74
2021/07/08 11:20:03;;;;;;;;;;;;;;;24.53;56.26;101787.66;4970679;28;19918;-74
2021/07/08 11:22:33;;;;;;;;;;;;;;;25.22;54.68;101779.94;4954639;28;19940;-74
2021/07/08 11:24:58;;;;;;;;;;;;;;;24.62;56.21;101783.53;4970700;28;19922;-74
2021/07/08 11:27:23;;;;;;;;;;;;;;;24.11;57.84;101787.50;4971263;28;20431;-74
2021/07/08 11:29:53;;;;;;;;;;;;;;;24.15;56.93;101781.38;4970643;28;19914;-74
2021/07/08 11:32:20;;;;;;;;;;;;;;;24.67;55.81;101778.22;4970537;28;19922;-74
2021/07/08 11:34:49;;;;;;;;;;;;;;;24.77;55.19;101773.03;4971573;28;19914;-74
2021/07/08 11:37:17;;;;;;;;;;;;;;;24.68;56.18;101776.31;4970295;28;20308;-74
2021/07/08 11:39:43;;;;;;;;;;;;;;;25.00;55.02;101766.78;4970649;28;20324;-74
2021/07/08 11:42:09;;;;;;;;;;;;;;;25.21;53.98;101762.69;4954279;28;19932;-73
2021/07/08 11:44:34;;;;;;;;;;;;;;;25.28;53.69;101763.41;4971347;28;19918;-74
2021/07/08 11:46:59;;;;;;;;;;;;;;;25.99;50.61;101752.50;4969923;28;19927;-74
2021/07/08 11:49:26;;;;;;;;;;;;;;;25.86;52.19;101742.63;4954296;28;19925;-74
2021/07/08 11:51:51;;;;;;;;;;;;;;;25.97;51.72;101740.13;4954489;28;20262;-74
2021/07/08 11:54:17;;;;;;;;;;;;;;;26.15;51.70;101739.94;4954211;28;19914;-74
2021/07/08 11:56:42;;;;;;;;;;;;;;;26.52;50.67;101734.91;4953810;28;19918;-74
2021/07/08 11:59:07;;;;;;;;;;;;;;;26.65;50.72;101733.81;4970933;28;19949;-74
2021/07/08 12:01:33;;;;;;;;;;;;;;;25.94;51.67;101729.66;4969991;28;19997;-74
2021/07/08 12:03:59;;;;;;;;;;;;;;;25.76;52.72;101728.72;4970061;28;19914;-74
2021/07/08 12:06:27;;;;;;;;;;;;;;;24.94;55.37;101724.03;4970220;28;20012;-74
2021/07/08 12:08:55;;;;;;;;;;;;;;;25.28;54.12;101724.34;4970950;28;19914;-74
2021/07/08 12:11:26;;;;;;;;;;;;;;;24.97;55.00;101725.47;4969961;28;19924;-74
2021/07/08 12:13:53;;;;;;;;;;;;;;;26.03;52.38;101715.34;4953972;28;19936;-74
2021/07/08 12:16:30;;;;;;;;;;;;;;;25.78;52.47;101722.97;4969521;28;19929;-74
2021/07/08 12:18:56;;;;;;;;;;;;;;;25.51;55.32;101709.84;4969924;28;19925;-74
2021/07/08 12:21:24;;;;;;;;;;;;;;;25.16;55.18;101710.63;4969751;28;19922;-74
2021/07/08 12:23:50;;;;;;;;;;;;;;;25.83;52.82;101709.44;4970732;28;20358;-74
2021/07/08 12:26:30;;;;;;;;;;;;;;;26.15;52.67;101712.56;4968978;28;19918;-74
2021/07/08 12:29:13;;;;;;;;;;;;;;;25.22;53.07;101715.19;4969185;28;19991;-74
2021/07/08 12:31:43;;;;;;;;;;;;;;;25.38;56.09;101701.88;4969638;28;20283;-74
2021/07/08 12:34:08;;;;;;;;;;;;;;;25.51;57.38;101701.63;4970496;28;19922;-74
2021/07/08 12:36:33;;;;;;;;;;;;;;;25.43;56.72;101697.38;4953103;28;19925;-74